Flight Track Log - Related Links

Times and Time Zones

All times are in EDT time to prevent confusion due to time zone crossing. See the N335R flight status page for this flight to view local times or setup timezone preferences in your user account.


Time Position Orientation Groundspeed Altitude Reporting Facility
EDT Latitude Longitude Course Direction KTS MPH feet Rate Location/Type
Fri 02:30:40 PM 32.5333 -84.9167 40° Northeast 97 112 1,200  Level Atlanta TRACON
Fri 02:31:40 PM 32.5500 -84.9000 40° Northeast 115 132 2,100 767 Climbing Atlanta TRACON
Fri 02:33:40 PM 32.5167 -84.9500 224° Southwest 121 139 3,500 733 Climbing Atlanta TRACON
Fri 02:34:40 PM 32.5000 -84.9667 220° Southwest 109 125 4,300 678 Climbing Atlanta TRACON
Fri 02:35:35 PM 32.4667 -84.9833 203° Southwest 115 132 4,800 550 Climbing Atlanta TRACON
Fri 02:36:40 PM 32.4500 -85.0167 239° Southwest 113 130 5,400 528 Climbing Atlanta TRACON
Fri 02:37:40 PM 32.4167 -85.0500 220° Southwest 119 137 5,900 298 Climbing Atlanta TRACON
Fri 02:38:41 PM 32.4000 -85.0667 220° Southwest 136 157 6,000 50 Climbing Atlanta TRACON
Fri 02:39:41 PM 32.3667 -85.1000 220° Southwest 143 165 6,000 -50 Level Atlanta TRACON
Fri 02:40:41 PM 32.3333 -85.1333 220° Southwest 146 168 5,900 -50 Descending Atlanta TRACON
Fri 02:41:41 PM 32.3167 -85.1667 239° Southwest 148 170 5,900 53 Level Atlanta TRACON
Fri 02:42:35 PM 32.2833 -85.2000 220° Southwest 149 171 6,000  Climbing Atlanta TRACON
Fri 02:43:41 PM 32.2500 -85.2333 220° Southwest 150 173 5,900 -50 Descending Atlanta TRACON
Fri 02:44:35 PM 32.2167 -85.2667 220° Southwest 150 173 5,900 53 Level Atlanta TRACON
Fri 02:45:35 PM 32.2000 -85.3167 249° West 149 171 6,000  Climbing Atlanta TRACON
Fri 02:46:35 PM 32.1667 -85.3500 220° Southwest 152 175 5,900 -105 Descending Atlanta TRACON
Fri 02:47:29 PM 32.1333 -85.3667 203° Southwest 153 176 5,800 50 Descending Atlanta TRACON
Fri 02:48:35 PM 32.1000 -85.4000 220° Southwest 146 168 6,000 180 Climbing Atlanta TRACON
Fri 02:49:09 PM 32.0806 -85.4253 228° Southwest 146 168 6,100 56 Climbing Jacksonville Center
Fri 02:50:22 PM 32.0444 -85.4686 225° Southwest 156 180 6,100 -45 Level Jacksonville Center
Fri 02:51:23 PM 32.0122 -85.5019 221° Southwest 157 181 6,000 -49 Descending Jacksonville Center
Fri 02:52:24 PM 31.9822 -85.5428 229° Southwest 155 178 6,000  Level Jacksonville Center
Fri 02:53:31 PM 31.9481 -85.5808 223° Southwest 153 176 6,000 45 Level Jacksonville Center
Fri 02:54:38 PM 31.9097 -85.6214 222° Southwest 159 183 6,100  Climbing Jacksonville Center
Fri 02:55:33 PM 31.8819 -85.6500 221° Southwest 158 182 6,000 -49 Descending Jacksonville Center
Fri 02:56:40 PM 31.8436 -85.6856 218° Southwest 159 183 6,000 47 Level Jacksonville Center
Fri 02:57:41 PM 31.8114 -85.7261 227° Southwest 160 184 6,100  Climbing Jacksonville Center
Fri 02:58:30 PM 31.7856 -85.7544 223° Southwest 157 181 6,000 -55 Descending Jacksonville Center
Fri 02:59:31 PM 31.7533 -85.7950 227° Southwest 160 184 6,000  Level Jacksonville Center
Fri 03:00:32 PM 31.7214 -85.8283 222° Southwest 159 183 6,000 -49 Level Jacksonville Center
Fri 03:01:33 PM 31.6892 -85.8664 225° Southwest 159 183 5,900  Descending Jacksonville Center
Fri 03:02:34 PM 31.6589 -85.9044 227° Southwest 163 188 6,000 148 Climbing Jacksonville Center
Fri 03:03:35 PM 31.6289 -85.9400 225° Southwest 152 175 6,200 45 Climbing Jacksonville Center
Fri 03:04:48 PM 31.5861 -85.9800 219° Southwest 161 185 6,100 -45 Descending Jacksonville Center
Fri 03:05:49 PM 31.5558 -86.0206 229° Southwest 161 185 6,100  Level Jacksonville Center
Fri 03:06:50 PM 31.5194 -86.0558 220° Southwest 161 185 6,100  Level Jacksonville Center
Fri 03:07:45 PM 31.4894 -86.0864 221° Southwest 160 184 6,100  Level Jacksonville Center
Fri 03:08:46 PM 31.4572 -86.1219 223° Southwest 161 185 6,100  Level Jacksonville Center
Fri 03:09:47 PM 31.4250 -86.1572 223° Southwest 158 182 6,100  Level Jacksonville Center
Fri 03:10:42 PM 31.3972 -86.1903 225° Southwest 158 182 6,100 -52 Level Jacksonville Center
Fri 03:11:43 PM 31.3650 -86.2233 221° Southwest 159 183 6,000 -47 Descending Jacksonville Center
Fri 03:12:50 PM 31.3261 -86.2658 223° Southwest 160 184 6,000  Level Jacksonville Center
Fri 03:20:59 PM 31.0700 -86.5500 222° Southwest 154 177 6,000  Level Jacksonville Center
Fri 03:21:00 PM 31.0854 -86.5176 222° Southwest  Level FlightAware Approximate
Fri 03:21:41 PM 31.0461 -86.5781 225° Southwest 157 181 6,000  Level Jacksonville Center
Fri 03:22:00 PM 31.0562 -86.5486 222° Southwest  Level FlightAware Approximate
Fri 03:22:36 PM 31.0161 -86.6061 219° Southwest 157 181 6,000  Level Jacksonville Center
Fri 03:23:00 PM 31.0269 -86.5796 222° Southwest  Level FlightAware Approximate
Fri 03:23:37 PM 30.9858 -86.6436 227° Southwest 160 184 6,000  Level Jacksonville Center
Fri 03:24:00 PM 30.9977 -86.6106 222° Southwest  Level FlightAware Approximate
Fri 03:24:31 PM 30.9536 -86.6764 221° Southwest 158 182 6,000  Level Jacksonville Center
Fri 03:25:00 PM 30.9684 -86.6416 222° Southwest  Level FlightAware Approximate
Fri 03:25:38 PM 30.9169 -86.7158 223° Southwest 161 185 6,000  Level Jacksonville Center
Fri 03:26:00 PM 30.9391 -86.6726 222° Southwest  Level FlightAware Approximate
Fri 03:26:39 PM 30.8867 -86.7486 223° Southwest 159 183 6,000  Level Jacksonville Center
Fri 03:27:40 PM 30.8522 -86.7833 221° Southwest 161 185 6,000  Level Jacksonville Center
Fri 03:28:47 PM 30.8153 -86.8256 224° Southwest 161 185 6,000 -47 Level Jacksonville Center
Fri 03:29:48 PM 30.7831 -86.8603 223° Southwest 163 188 5,900  Descending Jacksonville Center
Fri 03:30:43 PM 30.7506 -86.8928 221° Southwest 161 185 6,000 52 Climbing Jacksonville Center
Fri 03:31:43 PM 30.7183 -86.9278 223° Southwest 163 188 6,000  Level Jacksonville Center
Fri 03:32:44 PM 30.6836 -86.9697 226° Southwest 165 190 6,000  Level Jacksonville Center
Fri 03:33:45 PM 30.6511 -87.0022 221° Southwest 165 190 6,000  Level Jacksonville Center
Fri 03:34:52 PM 30.6308 -87.0519 245° Southwest 171 197 6,000 -141 Level Jacksonville Center
Fri 03:35:53 PM 30.6267 -87.1097 265° West 174 200 5,700 -466 Descending Jacksonville Center
Fri 03:36:48 PM 30.6169 -87.1575 257° West 179 206 5,100 -694 Descending Jacksonville Center
Fri 03:37:54 PM 30.5961 -87.2169 248° West 180 207 4,300 -595 Descending Jacksonville Center
Fri 03:38:49 PM 30.5675 -87.2614 233° Southwest 180 207 3,900 -207 Descending Jacksonville Center
Fri 03:39:50 PM 30.5369 -87.2986 226° Southwest 158 182 3,900  Level Jacksonville Center
Fri 03:40:51 PM 30.5125 -87.3386 235° Southwest 155 178 3,900  Level Jacksonville Center
Fri 03:41:51 PM 30.4861 -87.3783 232° Southwest 151 174 3,900 -90 Level Jacksonville Center
Fri 03:43:05 PM 30.4511 -87.4225 227° Southwest 155 178 3,700 -344 Descending Jacksonville Center
Fri 03:43:53 PM 30.4203 -87.4089 159° South 149 171 3,200 -843 Descending Jacksonville Center
Fri 03:45:06 PM 30.3817 -87.3831 150° Southeast 128 147 2,000 -1,031 Descending Jacksonville Center
Fri 03:46:01 PM 30.3528 -87.3672 155° Southeast 124 143 1,000 -1,091 Descending Jacksonville Center
Fri 03:48:00 PM 30.3500 -87.3167 90° East  Level FlightAware Approximate

Login

Don't have an account? Register now (free) for customized features, flight alerts, and more!